createdAt,value
2023-04-29T00:01:27.753Z,10.98
2023-04-29T00:03:55.093Z,10.90
2023-04-29T00:06:22.734Z,10.82
2023-04-29T00:08:50.288Z,10.20
2023-04-29T00:11:17.279Z,9.90
2023-04-29T00:13:44.579Z,10.50
2023-04-29T00:16:11.927Z,10.07
2023-04-29T00:18:38.984Z,10.88
2023-04-29T00:21:06.390Z,10.68
2023-04-29T00:23:36.654Z,10.68
2023-04-29T00:26:03.781Z,9.38
2023-04-29T00:28:30.911Z,10.40
2023-04-29T00:30:58.147Z,9.48
2023-04-29T00:33:25.491Z,9.43
2023-04-29T00:35:52.677Z,8.65
2023-04-29T00:38:21.363Z,8.52
2023-04-29T00:40:48.774Z,8.13
2023-04-29T00:43:15.890Z,8.40
2023-04-29T00:45:43.292Z,8.05
2023-04-29T00:48:10.439Z,8.05
2023-04-29T00:50:37.863Z,7.85
2023-04-29T00:53:05.284Z,7.22
2023-04-29T00:55:33.767Z,7.43
2023-04-29T00:58:02.862Z,7.75
2023-04-29T01:00:31.216Z,7.70
2023-04-29T01:03:00.066Z,8.23
2023-04-29T01:05:28.040Z,8.15
2023-04-29T01:08:14.079Z,8.23
2023-04-29T01:10:59.765Z,7.78
2023-04-29T01:13:49.458Z,8.57
2023-04-29T01:16:39.134Z,7.88
2023-04-29T01:19:21.392Z,8.40
2023-04-29T01:21:49.418Z,8.18
2023-04-29T01:24:16.990Z,8.18
2023-04-29T01:26:56.988Z,8.30
2023-04-29T01:29:41.175Z,7.32
2023-04-29T01:32:18.153Z,7.78
2023-04-29T01:34:59.009Z,8.38
2023-04-29T01:37:33.602Z,7.85
2023-04-29T01:40:37.524Z,7.43
2023-04-29T01:43:09.693Z,7.78
2023-04-29T01:45:41.404Z,8.55
2023-04-29T01:48:09.782Z,8.93
2023-04-29T01:50:36.840Z,8.25
2023-04-29T01:53:03.955Z,9.35
2023-04-29T01:55:30.951Z,9.27
2023-04-29T01:57:58.004Z,11.15
2023-04-29T02:00:25.085Z,12.77
2023-04-29T02:02:52.287Z,12.88
2023-04-29T02:05:19.434Z,13.05
2023-04-29T02:07:46.414Z,13.57
2023-04-29T02:10:13.480Z,13.52
2023-04-29T02:12:41.167Z,14.55
2023-04-29T02:15:09.175Z,16.20
2023-04-29T02:17:36.176Z,15.38
2023-04-29T02:20:03.524Z,16.40
2023-04-29T02:22:30.555Z,17.08
2023-04-29T02:24:58.461Z,19.35
2023-04-29T02:27:26.581Z,20.90
2023-04-29T02:29:53.845Z,22.30
2023-04-29T02:32:21.240Z,23.27
2023-04-29T02:34:49.450Z,24.25
2023-04-29T02:37:16.584Z,24.95
2023-04-29T02:39:43.711Z,25.27
2023-04-29T02:42:10.696Z,27.52
2023-04-29T02:44:37.727Z,25.23
2023-04-29T02:47:04.866Z,25.60
2023-04-29T02:49:31.907Z,26.50
2023-04-29T02:51:58.958Z,26.48
2023-04-29T02:54:25.994Z,25.85
2023-04-29T02:56:53.188Z,25.90
2023-04-29T02:59:20.227Z,25.98
2023-04-29T03:01:47.801Z,28.23
2023-04-29T03:04:15.021Z,28.65
2023-04-29T03:06:42.349Z,29.80
2023-04-29T03:09:09.401Z,29.20
2023-04-29T03:11:36.429Z,30.38
2023-04-29T03:14:03.923Z,29.90
2023-04-29T03:16:31.617Z,31.42
2023-04-29T03:18:58.686Z,29.00
2023-04-29T03:21:27.205Z,31.05
2023-04-29T03:23:54.256Z,31.60
2023-04-29T03:26:23.832Z,30.75
2023-04-29T03:28:51.785Z,31.33
2023-04-29T03:31:21.107Z,30.88
2023-04-29T03:33:48.288Z,31.05
2023-04-29T03:36:15.608Z,33.22
2023-04-29T03:38:43.111Z,33.83
2023-04-29T03:41:10.371Z,36.10
2023-04-29T03:43:37.407Z,35.30
2023-04-29T03:46:04.422Z,35.88
2023-04-29T03:48:31.592Z,36.13
2023-04-29T03:50:58.719Z,33.90
2023-04-29T03:53:26.443Z,34.22
2023-04-29T03:55:53.632Z,33.72
2023-04-29T03:58:20.694Z,33.63
2023-04-29T04:00:47.931Z,34.65
2023-04-29T04:03:15.265Z,32.63
2023-04-29T04:05:42.330Z,32.60
2023-04-29T04:08:09.473Z,32.65
2023-04-29T04:10:36.523Z,29.40
2023-04-29T04:13:03.600Z,29.38
2023-04-29T04:15:30.591Z,30.77
2023-04-29T04:17:57.703Z,28.50
2023-04-29T04:20:24.762Z,28.10
2023-04-29T04:22:51.816Z,30.40
2023-04-29T04:25:18.917Z,31.88
2023-04-29T04:27:45.969Z,31.23
2023-04-29T04:30:14.319Z,33.92
2023-04-29T04:32:41.393Z,31.70
2023-04-29T04:35:08.932Z,31.90
2023-04-29T04:37:36.036Z,33.20
2023-04-29T04:40:03.131Z,34.70
2023-04-29T04:42:30.632Z,27.45
2023-04-29T04:44:57.947Z,25.98
2023-04-29T04:47:25.095Z,25.08
2023-04-29T04:49:53.390Z,23.77
2023-04-29T04:52:21.916Z,24.52
2023-04-29T04:54:49.109Z,23.13
2023-04-29T04:57:16.708Z,24.60
2023-04-29T04:59:43.778Z,22.65
2023-04-29T05:02:10.830Z,24.05
2023-04-29T05:04:38.069Z,24.55
2023-04-29T05:07:05.166Z,24.00
2023-04-29T05:09:32.280Z,25.00
2023-04-29T05:11:59.496Z,23.33
2023-04-29T05:14:26.951Z,21.00
2023-04-29T05:16:54.040Z,21.75
2023-04-29T05:19:21.222Z,20.45
2023-04-29T05:21:48.209Z,21.02
2023-04-29T05:24:15.760Z,21.80
2023-04-29T05:26:44.271Z,21.73
2023-04-29T05:29:12.384Z,19.92
2023-04-29T05:31:39.499Z,19.75
2023-04-29T05:34:06.592Z,21.10
2023-04-29T05:36:33.656Z,21.25
2023-04-29T05:39:00.733Z,21.02
2023-04-29T05:41:27.830Z,20.42
2023-04-29T05:43:54.988Z,21.13
2023-04-29T05:46:23.353Z,22.02
2023-04-29T05:48:50.433Z,21.05
2023-04-29T05:51:17.717Z,22.48
2023-04-29T05:53:44.819Z,23.63
2023-04-29T05:56:12.069Z,22.77
2023-04-29T05:58:39.114Z,22.35
2023-04-29T06:01:06.249Z,21.17
2023-04-29T06:03:33.505Z,20.15
2023-04-29T06:06:01.235Z,20.42
2023-04-29T06:08:28.489Z,21.58
2023-04-29T06:10:55.890Z,22.27
2023-04-29T06:13:23.023Z,20.67
2023-04-29T06:15:50.065Z,20.23
2023-04-29T06:18:17.185Z,19.05
2023-04-29T06:20:44.193Z,20.55
2023-04-29T06:23:11.339Z,19.50
2023-04-29T06:25:38.350Z,20.48
2023-04-29T06:28:05.424Z,21.73
2023-04-29T06:30:32.482Z,20.90
2023-04-29T06:32:59.568Z,19.98
2023-04-29T06:35:26.613Z,19.63
2023-04-29T06:37:53.983Z,18.50
2023-04-29T06:40:21.068Z,17.30
2023-04-29T06:42:48.142Z,15.65
2023-04-29T06:45:15.336Z,16.38
2023-04-29T06:47:42.384Z,17.13
2023-04-29T06:50:10.008Z,18.40
2023-04-29T06:52:37.306Z,17.50
2023-04-29T06:55:04.737Z,18.00
2023-04-29T06:57:32.310Z,19.15
2023-04-29T07:00:00.075Z,19.65
2023-04-29T07:02:27.276Z,18.52
2023-04-29T07:04:54.598Z,19.02
2023-04-29T07:07:21.723Z,19.05
2023-04-29T07:09:52.224Z,20.13
2023-04-29T07:12:19.547Z,19.60
2023-04-29T07:14:46.666Z,20.08
2023-04-29T07:17:14.309Z,20.70
2023-04-29T07:19:41.403Z,20.42
2023-04-29T07:22:10.058Z,19.88
2023-04-29T07:24:37.122Z,20.58
2023-04-29T07:27:04.639Z,19.90
2023-04-29T07:29:31.862Z,21.55
2023-04-29T07:31:58.931Z,21.00
2023-04-29T07:34:26.180Z,21.02
2023-04-29T07:36:53.198Z,21.23
2023-04-29T07:39:20.180Z,23.08
2023-04-29T07:41:47.222Z,22.90
2023-04-29T07:44:15.105Z,22.83
2023-04-29T07:46:42.225Z,23.42
2023-04-29T07:49:09.532Z,22.85
2023-04-29T07:51:37.292Z,23.60
2023-04-29T07:54:04.898Z,23.50
2023-04-29T07:56:32.685Z,23.40
2023-04-29T07:59:02.672Z,23.73
2023-04-29T08:01:29.754Z,24.27
2023-04-29T08:03:57.023Z,23.55
2023-04-29T08:06:24.337Z,23.65
2023-04-29T08:08:51.446Z,22.77
2023-04-29T08:11:19.585Z,25.38
2023-04-29T08:13:46.938Z,24.73
2023-04-29T08:16:14.435Z,24.23
2023-04-29T08:18:41.716Z,25.30
2023-04-29T08:21:11.438Z,26.75
2023-04-29T08:23:39.471Z,24.50
2023-04-29T08:26:06.816Z,24.02
2023-04-29T08:28:33.964Z,24.73
2023-04-29T08:31:03.547Z,26.60
2023-04-29T08:33:30.616Z,24.80
2023-04-29T08:36:03.719Z,25.88
2023-04-29T08:38:31.247Z,22.30
2023-04-29T08:40:58.781Z,23.15
2023-04-29T08:43:27.286Z,21.90
2023-04-29T08:45:58.160Z,21.20
2023-04-29T08:48:26.829Z,21.77
2023-04-29T08:50:54.039Z,20.92
2023-04-29T08:53:21.173Z,20.42
2023-04-29T08:55:48.873Z,20.80
2023-04-29T08:58:17.043Z,21.00
2023-04-29T09:00:45.082Z,22.48
2023-04-29T09:03:19.631Z,20.73
2023-04-29T09:05:53.203Z,21.35
2023-04-29T09:08:22.568Z,19.98
2023-04-29T09:10:51.331Z,20.48
2023-04-29T09:13:32.214Z,19.83
2023-04-29T09:15:59.704Z,19.75
2023-04-29T09:18:45.804Z,20.40
2023-04-29T09:21:25.905Z,20.73
2023-04-29T09:23:58.016Z,20.83
2023-04-29T09:26:25.766Z,20.45
2023-04-29T09:29:12.053Z,22.85
2023-04-29T09:31:39.736Z,21.60
2023-04-29T09:34:07.542Z,21.83
2023-04-29T09:36:45.822Z,21.27
2023-04-29T09:39:14.046Z,22.17
2023-04-29T09:42:09.832Z,22.70
2023-04-29T09:44:36.942Z,25.00
2023-04-29T09:47:04.063Z,23.40
2023-04-29T09:49:35.518Z,23.55
2023-04-29T09:52:04.241Z,22.67
2023-04-29T09:54:33.779Z,23.42
2023-04-29T09:57:02.515Z,21.60
2023-04-29T09:59:29.648Z,22.20
2023-04-29T10:01:58.540Z,22.45
2023-04-29T10:04:27.778Z,22.73
2023-04-29T10:06:56.617Z,23.48
2023-04-29T10:09:24.441Z,24.10
2023-04-29T10:11:53.795Z,23.60
2023-04-29T10:14:26.352Z,22.63
2023-04-29T10:17:17.306Z,22.70
2023-04-29T10:20:05.996Z,24.20
2023-04-29T10:23:01.157Z,25.77
2023-04-29T10:25:29.529Z,22.10
2023-04-29T10:27:57.056Z,21.92
2023-04-29T10:30:24.275Z,21.40
2023-04-29T10:32:53.206Z,21.50
2023-04-29T10:35:24.645Z,20.80
2023-04-29T10:37:53.205Z,20.17
2023-04-29T10:40:42.816Z,45.47
2023-04-29T10:43:10.105Z,23.30
2023-04-29T10:45:38.123Z,20.13
2023-04-29T10:48:06.319Z,24.27
2023-04-29T10:50:35.875Z,24.77
2023-04-29T10:53:04.613Z,26.70
2023-04-29T10:55:37.444Z,29.23
2023-04-29T10:58:06.171Z,23.45
2023-04-29T11:00:35.880Z,31.83
2023-04-29T11:03:06.345Z,40.60
2023-04-29T11:05:38.039Z,30.77
2023-04-29T11:08:13.764Z,24.13
2023-04-29T11:10:44.824Z,24.33
2023-04-29T11:13:28.124Z,27.65
2023-04-29T11:16:12.134Z,25.45
2023-04-29T11:19:08.700Z,23.90
2023-04-29T11:21:37.023Z,23.48
2023-04-29T11:24:06.552Z,24.08
2023-04-29T11:26:37.730Z,23.70
2023-04-29T11:29:12.029Z,25.02
2023-04-29T11:31:39.746Z,24.23
2023-04-29T11:34:07.616Z,21.40
2023-04-29T11:36:36.196Z,21.33
2023-04-29T11:39:04.673Z,20.27
2023-04-29T11:41:31.940Z,20.48
2023-04-29T11:44:03.889Z,20.42
2023-04-29T11:46:32.237Z,20.02
2023-04-29T11:49:00.960Z,22.23
2023-04-29T11:51:28.830Z,21.10
2023-04-29T11:53:58.203Z,21.15
2023-04-29T11:56:26.026Z,20.25
2023-04-29T11:58:58.135Z,20.85
2023-04-29T12:01:27.236Z,20.67
2023-04-29T12:04:02.953Z,21.00
2023-04-29T12:06:32.034Z,21.25
2023-04-29T12:09:01.413Z,21.40
2023-04-29T12:11:29.159Z,21.92
2023-04-29T12:13:57.314Z,22.48
2023-04-29T12:16:24.782Z,20.10
2023-04-29T12:18:52.998Z,21.48
2023-04-29T12:21:21.918Z,22.08
2023-04-29T12:23:49.060Z,21.88
2023-04-29T12:26:17.888Z,21.63
2023-04-29T12:28:44.963Z,20.55
2023-04-29T12:31:12.054Z,20.15
2023-04-29T12:33:42.942Z,19.85
2023-04-29T12:36:18.382Z,21.02
2023-04-29T12:38:45.862Z,21.25
2023-04-29T12:41:17.524Z,20.35
2023-04-29T12:43:44.936Z,19.45
2023-04-29T12:46:15.399Z,20.63
2023-04-29T12:48:46.153Z,20.50
2023-04-29T12:51:13.587Z,19.92
2023-04-29T12:53:41.119Z,19.85
2023-04-29T12:56:08.474Z,20.30
2023-04-29T12:58:35.625Z,20.60
2023-04-29T13:01:02.741Z,20.05
2023-04-29T13:03:30.121Z,20.45
2023-04-29T13:05:57.489Z,20.65
2023-04-29T13:08:24.810Z,21.00
2023-04-29T13:10:52.029Z,20.42
2023-04-29T13:13:19.195Z,21.80
2023-04-29T13:15:46.420Z,21.13
2023-04-29T13:18:13.779Z,21.35
2023-04-29T13:20:42.675Z,20.20
2023-04-29T13:23:12.417Z,19.30
2023-04-29T13:25:40.589Z,19.60
2023-04-29T13:28:08.099Z,19.88
2023-04-29T13:30:36.455Z,19.20
2023-04-29T13:33:09.848Z,19.45
2023-04-29T13:35:41.717Z,17.98
2023-04-29T13:38:09.581Z,18.35
2023-04-29T13:40:41.691Z,17.83
2023-04-29T13:43:14.462Z,19.83
2023-04-29T13:45:47.725Z,17.27
2023-04-29T13:48:28.436Z,19.33
2023-04-29T13:54:17.616Z,18.65
2023-04-29T14:03:50.599Z,19.70
2023-04-29T14:06:17.705Z,19.77
2023-04-29T14:08:45.097Z,19.98
2023-04-29T14:11:12.236Z,19.50
2023-04-29T14:13:39.214Z,17.95
2023-04-29T14:16:07.172Z,18.92
2023-04-29T14:18:34.978Z,17.52
2023-04-29T14:21:02.097Z,19.48
2023-04-29T14:23:29.225Z,18.60
2023-04-29T14:26:11.089Z,18.45
2023-04-29T14:28:45.407Z,18.88
2023-04-29T14:31:14.445Z,19.17
2023-04-29T14:33:41.585Z,18.70
2023-04-29T14:36:09.664Z,18.98
2023-04-29T14:38:36.856Z,18.65
2023-04-29T14:41:04.283Z,19.73
2023-04-29T14:43:31.338Z,17.98
2023-04-29T14:45:58.846Z,19.58
2023-04-29T14:48:25.873Z,19.40
2023-04-29T14:50:52.962Z,19.35
2023-04-29T14:53:21.538Z,20.00
2023-04-29T14:55:50.722Z,20.75
2023-04-29T14:58:17.706Z,18.58
2023-04-29T15:00:44.979Z,19.98
2023-04-29T15:03:20.179Z,19.95
2023-04-29T15:05:52.321Z,19.67
2023-04-29T15:08:19.751Z,18.50
2023-04-29T15:10:47.854Z,19.15
2023-04-29T15:13:15.184Z,17.80
2023-04-29T15:15:42.587Z,17.80
2023-04-29T15:18:09.697Z,16.52
2023-04-29T15:20:40.740Z,16.38
2023-04-29T15:23:08.900Z,15.90
2023-04-29T15:25:36.976Z,15.80
2023-04-29T15:28:05.977Z,15.80
2023-04-29T15:30:33.383Z,15.07
2023-04-29T15:33:00.663Z,15.13
2023-04-29T15:35:27.982Z,14.23
2023-04-29T15:37:55.196Z,14.43
2023-04-29T15:40:22.383Z,12.93
2023-04-29T15:42:49.450Z,14.90
2023-04-29T15:45:17.115Z,14.82
2023-04-29T15:47:44.293Z,16.38
2023-04-29T15:50:11.627Z,15.90
2023-04-29T15:52:38.716Z,15.55
2023-04-29T15:55:07.139Z,16.10
2023-04-29T15:57:35.019Z,15.55
2023-04-29T16:00:02.273Z,14.23
2023-04-29T16:02:29.456Z,15.50
2023-04-29T16:04:56.611Z,15.15
2023-04-29T16:07:23.704Z,14.45
2023-04-29T16:09:50.952Z,16.52
2023-04-29T16:12:18.017Z,16.65
2023-04-29T16:14:45.140Z,15.73
2023-04-29T16:17:12.940Z,15.55
2023-04-29T16:19:40.446Z,14.30
2023-04-29T16:22:07.556Z,15.23
2023-04-29T16:24:34.764Z,13.90
2023-04-29T16:27:01.957Z,14.60
2023-04-29T16:29:29.002Z,15.73
2023-04-29T16:31:55.987Z,14.85
2023-04-29T16:34:23.553Z,15.05
2023-04-29T16:36:51.158Z,14.45
2023-04-29T16:39:18.274Z,15.23
2023-04-29T16:41:45.380Z,16.15
2023-04-29T16:44:12.801Z,16.70
2023-04-29T16:46:40.109Z,16.92
2023-04-29T16:49:07.606Z,17.98
2023-04-29T16:51:34.749Z,16.45
2023-04-29T16:54:01.943Z,17.13
2023-04-29T16:56:29.147Z,19.10
2023-04-29T16:58:56.164Z,19.10
2023-04-29T17:01:23.350Z,18.77
2023-04-29T17:03:50.961Z,19.27
2023-04-29T17:06:18.242Z,19.25
2023-04-29T17:08:45.750Z,19.20
2023-04-29T17:11:13.164Z,19.27
2023-04-29T17:13:40.227Z,17.90
2023-04-29T17:16:07.912Z,18.80
2023-04-29T17:18:35.040Z,18.40
2023-04-29T17:21:02.987Z,18.25
2023-04-29T17:23:30.931Z,18.60
2023-04-29T17:25:58.081Z,18.48
2023-04-29T17:28:25.162Z,17.58
2023-04-29T17:30:55.911Z,18.55
2023-04-29T17:33:22.989Z,21.27
2023-04-29T17:35:50.096Z,22.50
2023-04-29T17:38:17.863Z,22.08
2023-04-29T17:40:45.062Z,22.23
2023-04-29T17:43:12.177Z,22.52
2023-04-29T17:45:42.332Z,21.75
2023-04-29T17:48:10.170Z,22.55
2023-04-29T17:50:38.554Z,22.88
2023-04-29T17:53:05.681Z,23.83
2023-04-29T17:55:32.928Z,21.85
2023-04-29T17:58:00.555Z,21.40
2023-04-29T18:00:27.681Z,21.05
2023-04-29T18:02:54.804Z,22.30
2023-04-29T18:05:21.957Z,22.48
2023-04-29T18:07:49.045Z,22.20
2023-04-29T18:10:16.321Z,22.67
2023-04-29T18:12:43.352Z,21.48
2023-04-29T18:15:10.968Z,22.35
2023-04-29T18:17:39.618Z,22.42
2023-04-29T18:20:08.134Z,23.63
2023-04-29T18:22:35.237Z,22.13
2023-04-29T18:25:02.400Z,21.52
2023-04-29T18:27:29.472Z,21.48
2023-04-29T18:29:56.760Z,21.42
2023-04-29T18:32:23.899Z,22.13
2023-04-29T18:34:51.003Z,22.90
2023-04-29T18:37:18.099Z,25.00
2023-04-29T18:39:45.096Z,22.42
2023-04-29T18:42:12.575Z,23.35
2023-04-29T18:44:40.190Z,26.13
2023-04-29T18:47:08.522Z,25.55
2023-04-29T18:49:38.060Z,22.67
2023-04-29T18:52:05.663Z,24.13
2023-04-29T18:54:33.726Z,23.75
2023-04-29T18:57:01.211Z,24.00
2023-04-29T18:59:28.275Z,24.73
2023-04-29T19:01:55.423Z,24.52
2023-04-29T19:04:22.686Z,25.45
2023-04-29T19:06:49.769Z,24.38
2023-04-29T19:09:16.843Z,24.85
2023-04-29T19:11:44.987Z,25.23
2023-04-29T19:14:12.089Z,25.35
2023-04-29T19:16:39.643Z,24.13
2023-04-29T19:19:06.882Z,25.10
2023-04-29T19:21:34.127Z,23.95
2023-04-29T19:24:01.161Z,24.42
2023-04-29T19:26:29.069Z,23.98
2023-04-29T19:28:56.146Z,23.70
2023-04-29T19:31:23.255Z,22.38
2023-04-29T19:33:52.458Z,23.15
2023-04-29T19:36:19.507Z,24.20
2023-04-29T19:38:47.110Z,23.67
2023-04-29T19:41:14.371Z,24.63
2023-04-29T19:43:41.470Z,23.77
2023-04-29T19:46:08.638Z,25.08
2023-04-29T19:48:35.938Z,25.15
2023-04-29T19:51:06.371Z,22.80
2023-04-29T19:53:33.395Z,23.48
2023-04-29T19:56:00.425Z,23.77
2023-04-29T19:58:27.667Z,23.40
2023-04-29T20:00:55.907Z,23.42
2023-04-29T20:03:23.084Z,23.25
2023-04-29T20:05:50.124Z,23.20
2023-04-29T20:08:17.201Z,23.00
2023-04-29T20:10:46.753Z,23.48
2023-04-29T20:13:13.904Z,24.00
2023-04-29T20:15:42.314Z,25.10
2023-04-29T20:18:09.560Z,26.42
2023-04-29T20:20:36.629Z,25.02
2023-04-29T20:23:04.732Z,23.77
2023-04-29T20:25:31.905Z,23.63
2023-04-29T20:27:59.485Z,24.40
2023-04-29T20:30:26.857Z,23.73
2023-04-29T20:32:54.028Z,24.10
2023-04-29T20:35:21.734Z,22.48
2023-04-29T20:37:49.188Z,23.52
2023-04-29T20:40:16.294Z,23.83
2023-04-29T20:42:43.424Z,24.27
2023-04-29T20:45:11.819Z,25.52
2023-04-29T20:47:39.267Z,26.20
2023-04-29T20:50:07.105Z,28.10
2023-04-29T20:52:35.106Z,26.90
2023-04-29T20:55:02.484Z,24.10
2023-04-29T20:57:29.530Z,23.48
2023-04-29T20:59:56.738Z,23.40
2023-04-29T21:02:23.926Z,23.88
2023-04-29T21:04:51.163Z,23.10
2023-04-29T21:07:18.345Z,22.75
2023-04-29T21:09:47.187Z,24.38
2023-04-29T21:12:15.097Z,22.27
2023-04-29T21:14:42.866Z,22.17
2023-04-29T21:17:10.169Z,25.75
2023-04-29T21:19:37.840Z,22.65
2023-04-29T21:22:05.149Z,26.08
2023-04-29T21:24:32.300Z,26.38
2023-04-29T21:26:59.368Z,25.23
2023-04-29T21:29:26.418Z,24.55
2023-04-29T21:31:53.542Z,23.52
2023-04-29T21:34:20.618Z,24.80
2023-04-29T21:36:48.255Z,25.63
2023-04-29T21:39:15.574Z,26.17
2023-04-29T21:41:43.882Z,25.95
2023-04-29T21:44:12.147Z,26.92
2023-04-29T21:46:39.579Z,25.98
2023-04-29T21:49:07.560Z,27.00
2023-04-29T21:51:35.737Z,26.52
2023-04-29T21:54:06.169Z,25.70
2023-04-29T21:56:33.236Z,26.80
2023-04-29T21:59:03.223Z,28.73
2023-04-29T22:01:48.110Z,27.23
2023-04-29T22:04:17.205Z,27.15
2023-04-29T22:06:44.355Z,27.80
2023-04-29T22:09:11.440Z,28.23
2023-04-29T22:11:39.298Z,27.42
2023-04-29T22:14:06.321Z,28.17
2023-04-29T22:16:36.087Z,27.92
2023-04-29T22:19:03.516Z,30.30
2023-04-29T22:21:31.778Z,28.30
2023-04-29T22:23:58.854Z,29.83
2023-04-29T22:26:25.965Z,29.98
2023-04-29T22:28:53.165Z,28.23
2023-04-29T22:31:20.221Z,28.58
2023-04-29T22:33:47.307Z,29.63
2023-04-29T22:36:14.397Z,29.05
2023-04-29T22:38:41.942Z,29.88
2023-04-29T22:41:10.299Z,29.92
2023-04-29T22:43:39.985Z,31.50
2023-04-29T22:46:07.033Z,31.40
2023-04-29T22:48:34.124Z,31.80
2023-04-29T22:51:01.278Z,30.98
2023-04-29T22:53:28.541Z,31.52
2023-04-29T22:55:59.222Z,34.05
2023-04-29T22:58:26.844Z,32.65
2023-04-29T23:00:58.885Z,31.98
2023-04-29T23:03:26.858Z,33.85
2023-04-29T23:06:01.264Z,33.42
2023-04-29T23:08:28.571Z,32.30
2023-04-29T23:10:55.790Z,34.38
2023-04-29T23:13:23.160Z,33.40
2023-04-29T23:15:50.228Z,32.78
2023-04-29T23:18:17.321Z,32.83
2023-04-29T23:20:47.892Z,34.10
2023-04-29T23:23:15.025Z,34.70
2023-04-29T23:25:42.797Z,33.20
2023-04-29T23:28:09.886Z,33.70
2023-04-29T23:30:36.850Z,34.42
2023-04-29T23:33:04.108Z,36.65
2023-04-29T23:35:31.822Z,34.30
2023-04-29T23:37:59.043Z,33.40
2023-04-29T23:40:26.171Z,35.78
2023-04-29T23:42:53.326Z,34.40
2023-04-29T23:45:20.521Z,32.72
2023-04-29T23:47:47.600Z,33.35
2023-04-29T23:50:14.729Z,33.40
2023-04-29T23:52:41.907Z,31.63
2023-04-29T23:55:11.003Z,31.73
2023-04-29T23:57:38.033Z,30.77
